sensor_id;sensor_type;location;lat;lon;timestamp;noise_LAeq;noise_LA_min;noise_LA_max;noise_LA01;noise_LA95
71016;Laerm;60940;52.046;5.340;2023-09-19T00:00:01;34.04;30.74;47.34;;
71016;Laerm;60940;52.046;5.340;2023-09-19T00:00:11;33.03;30.39;39.76;;
71016;Laerm;60940;52.046;5.340;2023-09-19T00:00:23;33.70;30.44;44.16;;
71016;Laerm;60940;52.046;5.340;2023-09-19T00:00:33;32.97;30.52;42.87;;
71016;Laerm;60940;52.046;5.340;2023-09-19T00:00:44;33.30;30.69;44.14;;
71016;Laerm;60940;52.046;5.340;2023-09-19T00:00:57;33.65;31.03;45.36;;
71016;Laerm;60940;52.046;5.340;2023-09-19T00:01:08;34.04;30.54;47.06;;
71016;Laerm;60940;52.046;5.340;2023-09-19T00:01:18;33.55;30.51;41.94;;
71016;Laerm;60940;52.046;5.340;2023-09-19T00:01:30;34.95;31.09;50.63;;
71016;Laerm;60940;52.046;5.340;2023-09-19T00:01:40;33.69;30.46;46.67;;
71016;Laerm;60940;52.046;5.340;2023-09-19T00:01:51;33.55;30.79;45.66;;
71016;Laerm;60940;52.046;5.340;2023-09-19T00:02:02;33.35;30.36;44.00;;
71016;Laerm;60940;52.046;5.340;2023-09-19T00:02:16;34.27;30.87;46.15;;
71016;Laerm;60940;52.046;5.340;2023-09-19T00:02:27;34.43;31.05;48.78;;
71016;Laerm;60940;52.046;5.340;2023-09-19T00:02:37;33.76;31.03;45.26;;
71016;Laerm;60940;52.046;5.340;2023-09-19T00:02:53;33.84;30.71;47.78;;
71016;Laerm;60940;52.046;5.340;2023-09-19T00:03:05;32.90;30.67;43.32;;
71016;Laerm;60940;52.046;5.340;2023-09-19T00:03:15;34.06;30.46;48.31;;
71016;Laerm;60940;52.046;5.340;2023-09-19T00:03:26;36.15;30.35;54.05;;
71016;Laerm;60940;52.046;5.340;2023-09-19T00:03:36;34.05;30.91;46.18;;
71016;Laerm;60940;52.046;5.340;2023-09-19T00:03:52;33.85;30.58;49.95;;
71016;Laerm;60940;52.046;5.340;2023-09-19T00:04:03;33.89;31.08;45.53;;
71016;Laerm;60940;52.046;5.340;2023-09-19T00:04:13;33.92;31.17;47.37;;
71016;Laerm;60940;52.046;5.340;2023-09-19T00:04:24;35.24;31.02;49.67;;
71016;Laerm;60940;52.046;5.340;2023-09-19T00:04:38;37.57;30.78;51.96;;
71016;Laerm;60940;52.046;5.340;2023-09-19T00:04:49;33.20;30.50;41.83;;
71016;Laerm;60940;52.046;5.340;2023-09-19T00:05:00;33.05;30.78;40.16;;
71016;Laerm;60940;52.046;5.340;2023-09-19T00:05:14;34.12;30.90;46.86;;
71016;Laerm;60940;52.046;5.340;2023-09-19T00:05:25;39.53;30.81;59.67;;
71016;Laerm;60940;52.046;5.340;2023-09-19T00:05:38;39.03;31.16;52.55;;
71016;Laerm;60940;52.046;5.340;2023-09-19T00:05:48;35.24;31.52;43.37;;
71016;Laerm;60940;52.046;5.340;2023-09-19T00:06:00;33.40;30.73;45.95;;
71016;Laerm;60940;52.046;5.340;2023-09-19T00:06:10;33.39;30.76;45.33;;
71016;Laerm;60940;52.046;5.340;2023-09-19T00:06:20;32.38;29.85;40.25;;
71016;Laerm;60940;52.046;5.340;2023-09-19T00:06:30;32.36;30.38;43.33;;
71016;Laerm;60940;52.046;5.340;2023-09-19T00:06:41;33.55;30.63;46.51;;
71016;Laerm;60940;52.046;5.340;2023-09-19T00:06:52;33.15;30.12;42.02;;
71016;Laerm;60940;52.046;5.340;2023-09-19T00:07:06;32.73;30.22;43.57;;
71016;Laerm;60940;52.046;5.340;2023-09-19T00:07:16;32.94;30.36;45.53;;
71016;Laerm;60940;52.046;5.340;2023-09-19T00:07:27;33.03;30.44;43.32;;
71016;Laerm;60940;52.046;5.340;2023-09-19T00:07:38;33.23;30.26;46.53;;
71016;Laerm;60940;52.046;5.340;2023-09-19T00:07:48;33.80;30.17;46.85;;
71016;Laerm;60940;52.046;5.340;2023-09-19T00:08:01;33.36;30.48;49.40;;
71016;Laerm;60940;52.046;5.340;2023-09-19T00:08:14;33.86;30.66;45.77;;
71016;Laerm;60940;52.046;5.340;2023-09-19T00:08:24;33.08;30.77;42.63;;
71016;Laerm;60940;52.046;5.340;2023-09-19T00:08:34;33.31;30.10;41.93;;
71016;Laerm;60940;52.046;5.340;2023-09-19T00:08:45;33.13;30.63;41.67;;
71016;Laerm;60940;52.046;5.340;2023-09-19T00:08:55;33.77;30.77;47.05;;
71016;Laerm;60940;52.046;5.340;2023-09-19T00:09:05;33.64;30.83;46.78;;
71016;Laerm;60940;52.046;5.340;2023-09-19T00:09:20;35.14;30.83;48.59;;
71016;Laerm;60940;52.046;5.340;2023-09-19T00:09:30;36.51;30.61;55.30;;
71016;Laerm;60940;52.046;5.340;2023-09-19T00:09:46;34.38;30.81;48.98;;
71016;Laerm;60940;52.046;5.340;2023-09-19T00:09:57;34.81;30.62;47.46;;
71016;Laerm;60940;52.046;5.340;2023-09-19T00:10:07;34.97;30.27;46.53;;
71016;Laerm;60940;52.046;5.340;2023-09-19T00:10:22;33.03;30.21;46.80;;
71016;Laerm;60940;52.046;5.340;2023-09-19T00:10:34;32.76;29.82;45.10;;
71016;Laerm;60940;52.046;5.340;2023-09-19T00:10:48;34.77;30.13;54.43;;
71016;Laerm;60940;52.046;5.340;2023-09-19T00:10:58;31.85;30.06;41.06;;
71016;Laerm;60940;52.046;5.340;2023-09-19T00:11:15;32.81;29.83;46.20;;
71016;Laerm;60940;52.046;5.340;2023-09-19T00:11:25;33.05;30.38;44.74;;
71016;Laerm;60940;52.046;5.340;2023-09-19T00:11:37;35.74;30.31;55.17;;
71016;Laerm;60940;52.046;5.340;2023-09-19T00:11:49;35.26;30.27;49.87;;
71016;Laerm;60940;52.046;5.340;2023-09-19T00:11:59;33.72;30.10;45.00;;
71016;Laerm;60940;52.046;5.340;2023-09-19T00:12:09;32.37;30.63;42.04;;
71016;Laerm;60940;52.046;5.340;2023-09-19T00:12:20;34.06;30.71;48.67;;
71016;Laerm;60940;52.046;5.340;2023-09-19T00:12:30;32.80;30.27;44.00;;
71016;Laerm;60940;52.046;5.340;2023-09-19T00:12:42;35.09;30.21;51.88;;
71016;Laerm;60940;52.046;5.340;2023-09-19T00:12:53;34.16;30.57;44.61;;
71016;Laerm;60940;52.046;5.340;2023-09-19T00:13:05;36.12;30.84;49.12;;
71016;Laerm;60940;52.046;5.340;2023-09-19T00:13:16;32.72;30.06;47.77;;
71016;Laerm;60940;52.046;5.340;2023-09-19T00:13:26;35.21;30.24;52.50;;
71016;Laerm;60940;52.046;5.340;2023-09-19T00:13:38;32.87;29.90;44.67;;
71016;Laerm;60940;52.046;5.340;2023-09-19T00:13:48;32.23;30.15;40.19;;
71016;Laerm;60940;52.046;5.340;2023-09-19T00:14:00;32.39;29.83;42.01;;
71016;Laerm;60940;52.046;5.340;2023-09-19T00:14:10;32.54;29.55;44.02;;
71016;Laerm;60940;52.046;5.340;2023-09-19T00:14:24;31.75;29.92;42.29;;
71016;Laerm;60940;52.046;5.340;2023-09-19T00:14:34;32.91;29.91;47.57;;
71016;Laerm;60940;52.046;5.340;2023-09-19T00:14:45;32.12;30.07;41.99;;
71016;Laerm;60940;52.046;5.340;2023-09-19T00:14:55;32.57;30.12;46.95;;
71016;Laerm;60940;52.046;5.340;2023-09-19T00:15:07;32.13;30.21;40.76;;
71016;Laerm;60940;52.046;5.340;2023-09-19T00:15:17;32.49;29.92;44.20;;
71016;Laerm;60940;52.046;5.340;2023-09-19T00:15:27;32.53;30.30;46.23;;
71016;Laerm;60940;52.046;5.340;2023-09-19T00:15:41;33.50;29.62;47.79;;
71016;Laerm;60940;52.046;5.340;2023-09-19T00:15:52;33.01;30.33;47.00;;
71016;Laerm;60940;52.046;5.340;2023-09-19T00:16:09;32.16;30.28;41.74;;
71016;Laerm;60940;52.046;5.340;2023-09-19T00:16:24;32.98;30.33;46.00;;
71016;Laerm;60940;52.046;5.340;2023-09-19T00:16:35;33.81;30.75;47.70;;
71016;Laerm;60940;52.046;5.340;2023-09-19T00:16:46;32.49;30.42;41.40;;
71016;Laerm;60940;52.046;5.340;2023-09-19T00:16:59;33.49;30.38;46.88;;
71016;Laerm;60940;52.046;5.340;2023-09-19T00:17:10;32.58;30.16;42.74;;
71016;Laerm;60940;52.046;5.340;2023-09-19T00:17:20;32.39;30.35;43.98;;
71016;Laerm;60940;52.046;5.340;2023-09-19T00:17:31;32.43;30.34;42.48;;
71016;Laerm;60940;52.046;5.340;2023-09-19T00:17:42;33.49;30.23;45.16;;
71016;Laerm;60940;52.046;5.340;2023-09-19T00:17:53;32.26;29.88;40.29;;
71016;Laerm;60940;52.046;5.340;2023-09-19T00:18:04;33.82;30.19;51.68;;
71016;Laerm;60940;52.046;5.340;2023-09-19T00:18:17;32.45;30.37;44.37;;
71016;Laerm;60940;52.046;5.340;2023-09-19T00:18:28;33.00;30.32;47.44;;
71016;Laerm;60940;52.046;5.340;2023-09-19T00:18:41;32.43;30.23;42.45;;
71016;Laerm;60940;52.046;5.340;2023-09-19T00:18:52;33.09;30.19;47.84;;
71016;Laerm;60940;52.046;5.340;2023-09-19T00:19:02;34.88;30.36;51.25;;
71016;Laerm;60940;52.046;5.340;2023-09-19T00:19:13;33.06;30.07;49.22;;
71016;Laerm;60940;52.046;5.340;2023-09-19T00:19:24;32.66;30.33;43.99;;
71016;Laerm;60940;52.046;5.340;2023-09-19T00:19:35;33.42;30.59;44.63;;
71016;Laerm;60940;52.046;5.340;2023-09-19T00:19:45;32.43;30.26;43.52;;
71016;Laerm;60940;52.046;5.340;2023-09-19T00:19:56;32.68;30.22;45.49;;
71016;Laerm;60940;52.046;5.340;2023-09-19T00:20:06;32.87;30.18;42.56;;
71016;Laerm;60940;52.046;5.340;2023-09-19T00:20:18;32.98;30.14;47.35;;
71016;Laerm;60940;52.046;5.340;2023-09-19T00:20:28;32.17;30.27;41.84;;
71016;Laerm;60940;52.046;5.340;2023-09-19T00:20:39;32.14;30.17;42.99;;
71016;Laerm;60940;52.046;5.340;2023-09-19T00:20:52;32.58;30.19;45.52;;
71016;Laerm;60940;52.046;5.340;2023-09-19T00:21:02;32.28;30.16;43.03;;
71016;Laerm;60940;52.046;5.340;2023-09-19T00:21:14;33.74;30.10;47.14;;
71016;Laerm;60940;52.046;5.340;2023-09-19T00:21:25;34.22;30.36;53.04;;
71016;Laerm;60940;52.046;5.340;2023-09-19T00:21:35;33.18;30.18;45.74;;
71016;Laerm;60940;52.046;5.340;2023-09-19T00:21:47;33.88;29.95;49.91;;
71016;Laerm;60940;52.046;5.340;2023-09-19T00:21:57;32.54;29.71;44.41;;
71016;Laerm;60940;52.046;5.340;2023-09-19T00:22:08;32.91;30.17;45.22;;
71016;Laerm;60940;52.046;5.340;2023-09-19T00:22:18;32.81;30.08;44.94;;
71016;Laerm;60940;52.046;5.340;2023-09-19T00:22:29;33.96;29.61;47.47;;
71016;Laerm;60940;52.046;5.340;2023-09-19T00:22:40;32.93;30.23;41.67;;
71016;Laerm;60940;52.046;5.340;2023-09-19T00:22:51;33.97;30.05;48.92;;
71016;Laerm;60940;52.046;5.340;2023-09-19T00:23:03;32.37;30.06;43.05;;
71016;Laerm;60940;52.046;5.340;2023-09-19T00:23:14;32.41;30.11;42.58;;
71016;Laerm;60940;52.046;5.340;2023-09-19T00:23:24;31.82;29.84;39.78;;
71016;Laerm;60940;52.046;5.340;2023-09-19T00:23:35;32.74;30.26;44.42;;
71016;Laerm;60940;52.046;5.340;2023-09-19T00:23:45;33.62;30.14;50.70;;
71016;Laerm;60940;52.046;5.340;2023-09-19T00:23:55;32.20;30.35;40.73;;
71016;Laerm;60940;52.046;5.340;2023-09-19T00:24:05;34.44;30.29;51.66;;
71016;Laerm;60940;52.046;5.340;2023-09-19T00:24:16;36.79;30.29;57.31;;
71016;Laerm;60940;52.046;5.340;2023-09-19T00:24:27;32.67;30.02;43.01;;
71016;Laerm;60940;52.046;5.340;2023-09-19T00:24:38;31.77;29.71;40.27;;
71016;Laerm;60940;52.046;5.340;2023-09-19T00:24:48;31.89;30.03;42.04;;
71016;Laerm;60940;52.046;5.340;2023-09-19T00:24:58;32.81;29.91;47.48;;
71016;Laerm;60940;52.046;5.340;2023-09-19T00:25:10;32.13;30.01;40.25;;
71016;Laerm;60940;52.046;5.340;2023-09-19T00:25:21;34.08;30.09;51.58;;
71016;Laerm;60940;52.046;5.340;2023-09-19T00:25:32;31.79;29.65;37.96;;
71016;Laerm;60940;52.046;5.340;2023-09-19T00:25:42;32.95;29.87;48.89;;
71016;Laerm;60940;52.046;5.340;2023-09-19T00:25:52;32.76;30.08;45.92;;
71016;Laerm;60940;52.046;5.340;2023-09-19T00:26:02;33.04;29.79;44.69;;
71016;Laerm;60940;52.046;5.340;2023-09-19T00:26:13;31.95;29.79;41.97;;
71016;Laerm;60940;52.046;5.340;2023-09-19T00:26:24;33.19;29.99;45.93;;
71016;Laerm;60940;52.046;5.340;2023-09-19T00:26:34;32.07;30.19;43.29;;
71016;Laerm;60940;52.046;5.340;2023-09-19T00:26:44;33.78;30.15;49.56;;
71016;Laerm;60940;52.046;5.340;2023-09-19T00:26:57;33.11;30.00;50.07;;
71016;Laerm;60940;52.046;5.340;2023-09-19T00:27:08;36.70;30.07;57.55;;
71016;Laerm;60940;52.046;5.340;2023-09-19T00:27:19;32.05;30.10;45.53;;
71016;Laerm;60940;52.046;5.340;2023-09-19T00:27:29;35.63;30.52;53.93;;
71016;Laerm;60940;52.046;5.340;2023-09-19T00:27:39;32.72;30.08;44.31;;
71016;Laerm;60940;52.046;5.340;2023-09-19T00:27:50;32.63;30.20;47.30;;
71016;Laerm;60940;52.046;5.340;2023-09-19T00:28:01;32.12;29.88;43.47;;
71016;Laerm;60940;52.046;5.340;2023-09-19T00:28:12;33.71;29.98;48.54;;
71016;Laerm;60940;52.046;5.340;2023-09-19T00:28:23;32.54;30.24;46.83;;
71016;Laerm;60940;52.046;5.340;2023-09-19T00:28:33;33.37;30.23;46.52;;
71016;Laerm;60940;52.046;5.340;2023-09-19T00:28:43;33.71;30.08;46.58;;
71016;Laerm;60940;52.046;5.340;2023-09-19T00:28:53;33.76;30.24;48.09;;
71016;Laerm;60940;52.046;5.340;2023-09-19T00:29:04;31.81;30.38;41.90;;
71016;Laerm;60940;52.046;5.340;2023-09-19T00:29:14;31.98;30.23;39.73;;
71016;Laerm;60940;52.046;5.340;2023-09-19T00:29:26;33.56;30.26;51.53;;
71016;Laerm;60940;52.046;5.340;2023-09-19T00:29:39;33.03;30.34;47.19;;
71016;Laerm;60940;52.046;5.340;2023-09-19T00:29:49;33.10;29.87;46.83;;
71016;Laerm;60940;52.046;5.340;2023-09-19T00:29:59;32.60;30.27;42.82;;
71016;Laerm;60940;52.046;5.340;2023-09-19T00:30:11;32.73;30.27;41.84;;
71016;Laerm;60940;52.046;5.340;2023-09-19T00:30:25;32.24;29.92;46.51;;
71016;Laerm;60940;52.046;5.340;2023-09-19T00:30:36;32.40;29.97;47.02;;
71016;Laerm;60940;52.046;5.340;2023-09-19T00:30:48;31.91;30.05;41.09;;
71016;Laerm;60940;52.046;5.340;2023-09-19T00:31:01;32.91;30.35;43.54;;
71016;Laerm;60940;52.046;5.340;2023-09-19T00:31:11;32.77;30.31;42.48;;
71016;Laerm;60940;52.046;5.340;2023-09-19T00:31:22;33.42;30.55;42.01;;
71016;Laerm;60940;52.046;5.340;2023-09-19T00:31:35;34.88;31.18;43.29;;
71016;Laerm;60940;52.046;5.340;2023-09-19T00:31:47;34.02;30.66;47.69;;
71016;Laerm;60940;52.046;5.340;2023-09-19T00:31:58;33.77;30.88;47.92;;
71016;Laerm;60940;52.046;5.340;2023-09-19T00:32:09;33.78;30.52;45.76;;
71016;Laerm;60940;52.046;5.340;2023-09-19T00:32:19;33.00;30.32;43.97;;
71016;Laerm;60940;52.046;5.340;2023-09-19T00:32:29;33.32;29.99;45.49;;
71016;Laerm;60940;52.046;5.340;2023-09-19T00:32:42;32.67;30.23;44.36;;
71016;Laerm;60940;52.046;5.340;2023-09-19T00:32:52;32.21;30.06;38.74;;
71016;Laerm;60940;52.046;5.340;2023-09-19T00:33:03;32.19;29.95;41.51;;
71016;Laerm;60940;52.046;5.340;2023-09-19T00:33:16;33.36;30.17;50.46;;
71016;Laerm;60940;52.046;5.340;2023-09-19T00:33:26;32.81;30.41;46.11;;
71016;Laerm;60940;52.046;5.340;2023-09-19T00:33:36;32.29;29.75;41.15;;
71016;Laerm;60940;52.046;5.340;2023-09-19T00:33:46;32.40;29.94;44.02;;
71016;Laerm;60940;52.046;5.340;2023-09-19T00:33:58;32.92;29.99;45.25;;
71016;Laerm;60940;52.046;5.340;2023-09-19T00:34:10;32.53;30.09;44.68;;
71016;Laerm;60940;52.046;5.340;2023-09-19T00:34:20;35.48;29.80;56.68;;
71016;Laerm;60940;52.046;5.340;2023-09-19T00:34:31;33.62;29.70;50.86;;
71016;Laerm;60940;52.046;5.340;2023-09-19T00:34:41;32.25;30.09;42.83;;
71016;Laerm;60940;52.046;5.340;2023-09-19T00:34:52;31.91;30.10;40.42;;
71016;Laerm;60940;52.046;5.340;2023-09-19T00:35:02;33.44;29.96;47.78;;
71016;Laerm;60940;52.046;5.340;2023-09-19T00:35:13;32.48;29.82;45.40;;
71016;Laerm;60940;52.046;5.340;2023-09-19T00:35:25;32.60;29.99;43.58;;
71016;Laerm;60940;52.046;5.340;2023-09-19T00:35:35;32.45;30.10;46.77;;
71016;Laerm;60940;52.046;5.340;2023-09-19T00:35:50;31.71;29.97;37.94;;
71016;Laerm;60940;52.046;5.340;2023-09-19T00:36:00;32.09;30.03;45.89;;
71016;Laerm;60940;52.046;5.340;2023-09-19T00:36:14;32.40;30.27;44.92;;
71016;Laerm;60940;52.046;5.340;2023-09-19T00:36:24;32.68;29.99;44.51;;
71016;Laerm;60940;52.046;5.340;2023-09-19T00:36:34;32.40;30.01;45.75;;
71016;Laerm;60940;52.046;5.340;2023-09-19T00:36:44;32.12;30.38;42.05;;
71016;Laerm;60940;52.046;5.340;2023-09-19T00:36:55;32.33;30.27;41.74;;
71016;Laerm;60940;52.046;5.340;2023-09-19T00:37:05;33.07;30.63;44.02;;
71016;Laerm;60940;52.046;5.340;2023-09-19T00:37:15;32.62;30.37;46.28;;
71016;Laerm;60940;52.046;5.340;2023-09-19T00:37:27;33.45;29.88;51.87;;
71016;Laerm;60940;52.046;5.340;2023-09-19T00:37:38;34.32;30.43;50.69;;
71016;Laerm;60940;52.046;5.340;2023-09-19T00:37:50;32.31;30.43;41.12;;
71016;Laerm;60940;52.046;5.340;2023-09-19T00:38:00;32.03;30.10;42.79;;
71016;Laerm;60940;52.046;5.340;2023-09-19T00:38:10;34.97;30.25;53.19;;
71016;Laerm;60940;52.046;5.340;2023-09-19T00:38:21;32.08;30.11;40.83;;
71016;Laerm;60940;52.046;5.340;2023-09-19T00:38:32;32.44;29.67;45.97;;
71016;Laerm;60940;52.046;5.340;2023-09-19T00:38:42;33.58;30.23;44.55;;
71016;Laerm;60940;52.046;5.340;2023-09-19T00:38:54;35.29;31.31;49.16;;
71016;Laerm;60940;52.046;5.340;2023-09-19T00:39:05;33.72;30.51;45.32;;
71016;Laerm;60940;52.046;5.340;2023-09-19T00:39:15;34.80;30.83;47.56;;
71016;Laerm;60940;52.046;5.340;2023-09-19T00:39:25;34.22;30.17;50.46;;
71016;Laerm;60940;52.046;5.340;2023-09-19T00:39:36;33.72;30.08;49.43;;
71016;Laerm;60940;52.046;5.340;2023-09-19T00:39:47;32.32;30.41;42.77;;
71016;Laerm;60940;52.046;5.340;2023-09-19T00:39:57;32.37;30.24;40.77;;
71016;Laerm;60940;52.046;5.340;2023-09-19T00:40:07;32.54;30.24;43.25;;
71016;Laerm;60940;52.046;5.340;2023-09-19T00:40:27;32.79;30.24;45.44;;
71016;Laerm;60940;52.046;5.340;2023-09-19T00:40:38;32.05;30.07;39.53;;
71016;Laerm;60940;52.046;5.340;2023-09-19T00:40:48;33.49;30.26;51.40;;
71016;Laerm;60940;52.046;5.340;2023-09-19T00:40:58;32.82;30.52;45.26;;
71016;Laerm;60940;52.046;5.340;2023-09-19T00:41:09;32.82;30.42;46.90;;
71016;Laerm;60940;52.046;5.340;2023-09-19T00:41:19;32.37;30.15;43.51;;
71016;Laerm;60940;52.046;5.340;2023-09-19T00:41:34;33.40;30.26;48.99;;
71016;Laerm;60940;52.046;5.340;2023-09-19T00:41:45;33.30;30.56;45.87;;
71016;Laerm;60940;52.046;5.340;2023-09-19T00:41:56;35.49;30.92;46.70;;
71016;Laerm;60940;52.046;5.340;2023-09-19T00:42:06;36.98;30.74;53.16;;
71016;Laerm;60940;52.046;5.340;2023-09-19T00:42:19;32.98;30.18;44.95;;
71016;Laerm;60940;52.046;5.340;2023-09-19T00:42:31;32.14;30.37;43.42;;
71016;Laerm;60940;52.046;5.340;2023-09-19T00:42:41;31.73;30.01;39.43;;
71016;Laerm;60940;52.046;5.340;2023-09-19T00:42:52;32.64;30.14;47.64;;
71016;Laerm;60940;52.046;5.340;2023-09-19T00:43:06;31.71;30.06;40.00;;
71016;Laerm;60940;52.046;5.340;2023-09-19T00:43:18;31.43;29.80;38.70;;
71016;Laerm;60940;52.046;5.340;2023-09-19T00:43:28;31.50;29.78;38.65;;
71016;Laerm;60940;52.046;5.340;2023-09-19T00:43:39;31.95;29.79;42.48;;
71016;Laerm;60940;52.046;5.340;2023-09-19T00:43:50;31.72;29.70;41.20;;
71016;Laerm;60940;52.046;5.340;2023-09-19T00:44:00;32.65;29.86;50.53;;
71016;Laerm;60940;52.046;5.340;2023-09-19T00:44:11;32.63;30.11;49.53;;
71016;Laerm;60940;52.046;5.340;2023-09-19T00:44:22;32.62;30.29;44.81;;
71016;Laerm;60940;52.046;5.340;2023-09-19T00:44:33;33.36;30.40;46.66;;
71016;Laerm;60940;52.046;5.340;2023-09-19T00:44:44;32.12;29.80;40.86;;
71016;Laerm;60940;52.046;5.340;2023-09-19T00:44:54;31.59;30.21;35.64;;
71016;Laerm;60940;52.046;5.340;2023-09-19T00:45:05;32.31;30.14;39.45;;
71016;Laerm;60940;52.046;5.340;2023-09-19T00:45:16;32.49;29.88;45.30;;
71016;Laerm;60940;52.046;5.340;2023-09-19T00:45:27;32.01;30.22;41.22;;
71016;Laerm;60940;52.046;5.340;2023-09-19T00:45:38;31.61;29.82;36.07;;
71016;Laerm;60940;52.046;5.340;2023-09-19T00:45:50;32.29;30.11;42.21;;
71016;Laerm;60940;52.046;5.340;2023-09-19T00:46:01;32.15;30.13;46.32;;
71016;Laerm;60940;52.046;5.340;2023-09-19T00:46:16;32.95;30.11;42.54;;
71016;Laerm;60940;52.046;5.340;2023-09-19T00:46:26;34.86;30.62;52.34;;
71016;Laerm;60940;52.046;5.340;2023-09-19T00:46:37;31.93;30.25;36.86;;
71016;Laerm;60940;52.046;5.340;2023-09-19T00:46:47;32.39;29.89;43.47;;
71016;Laerm;60940;52.046;5.340;2023-09-19T00:46:59;31.91;29.96;46.46;;
71016;Laerm;60940;52.046;5.340;2023-09-19T00:47:09;32.11;29.99;44.49;;
71016;Laerm;60940;52.046;5.340;2023-09-19T00:47:19;31.82;30.08;38.73;;
71016;Laerm;60940;52.046;5.340;2023-09-19T00:47:30;31.85;30.01;41.84;;
71016;Laerm;60940;52.046;5.340;2023-09-19T00:47:41;32.88;30.45;47.55;;
71016;Laerm;60940;52.046;5.340;2023-09-19T00:47:51;32.29;30.09;45.31;;
71016;Laerm;60940;52.046;5.340;2023-09-19T00:48:02;31.95;30.08;44.00;;
71016;Laerm;60940;52.046;5.340;2023-09-19T00:48:14;31.83;29.88;44.74;;
71016;Laerm;60940;52.046;5.340;2023-09-19T00:48:24;32.58;29.81;45.54;;
71016;Laerm;60940;52.046;5.340;2023-09-19T00:48:40;33.55;29.97;52.28;;
71016;Laerm;60940;52.046;5.340;2023-09-19T00:48:54;32.43;30.07;48.14;;
71016;Laerm;60940;52.046;5.340;2023-09-19T00:49:04;32.08;29.88;43.97;;
71016;Laerm;60940;52.046;5.340;2023-09-19T00:49:14;31.71;30.09;40.32;;
71016;Laerm;60940;52.046;5.340;2023-09-19T00:49:25;31.45;29.89;39.90;;
71016;Laerm;60940;52.046;5.340;2023-09-19T00:49:35;32.09;30.08;44.81;;
71016;Laerm;60940;52.046;5.340;2023-09-19T00:49:46;31.70;30.25;37.51;;
71016;Laerm;60940;52.046;5.340;2023-09-19T00:49:59;32.38;30.31;44.75;;
71016;Laerm;60940;52.046;5.340;2023-09-19T00:50:09;31.85;30.28;40.76;;
71016;Laerm;60940;52.046;5.340;2023-09-19T00:50:22;32.19;30.15;42.33;;
71016;Laerm;60940;52.046;5.340;2023-09-19T00:50:32;32.63;30.13;44.96;;
71016;Laerm;60940;52.046;5.340;2023-09-19T00:50:43;32.75;30.29;43.31;;
71016;Laerm;60940;52.046;5.340;2023-09-19T00:50:53;33.41;30.20;48.07;;
71016;Laerm;60940;52.046;5.340;2023-09-19T00:51:04;31.94;30.32;40.73;;
71016;Laerm;60940;52.046;5.340;2023-09-19T00:51:15;32.01;30.00;43.45;;
71016;Laerm;60940;52.046;5.340;2023-09-19T00:51:28;31.97;30.03;45.52;;
71016;Laerm;60940;52.046;5.340;2023-09-19T00:51:39;31.90;29.99;39.73;;
71016;Laerm;60940;52.046;5.340;2023-09-19T00:51:55;32.01;29.80;42.40;;
71016;Laerm;60940;52.046;5.340;2023-09-19T00:52:05;31.48;29.88;37.78;;
71016;Laerm;60940;52.046;5.340;2023-09-19T00:52:16;32.41;30.06;47.54;;
71016;Laerm;60940;52.046;5.340;2023-09-19T00:52:29;32.44;30.05;47.11;;
71016;Laerm;60940;52.046;5.340;2023-09-19T00:52:42;31.68;29.93;41.07;;
71016;Laerm;60940;52.046;5.340;2023-09-19T00:52:53;32.73;29.83;50.98;;
71016;Laerm;60940;52.046;5.340;2023-09-19T00:53:05;31.91;29.92;42.63;;
71016;Laerm;60940;52.046;5.340;2023-09-19T00:53:19;32.49;30.00;43.62;;
71016;Laerm;60940;52.046;5.340;2023-09-19T00:53:30;32.29;30.15;46.20;;
71016;Laerm;60940;52.046;5.340;2023-09-19T00:53:40;37.46;30.58;53.97;;
71016;Laerm;60940;52.046;5.340;2023-09-19T00:53:56;33.10;30.14;45.04;;
71016;Laerm;60940;52.046;5.340;2023-09-19T00:54:08;31.79;30.02;41.82;;
71016;Laerm;60940;52.046;5.340;2023-09-19T00:54:19;33.11;29.73;44.15;;
71016;Laerm;60940;52.046;5.340;2023-09-19T00:54:29;32.01;30.02;39.23;;
71016;Laerm;60940;52.046;5.340;2023-09-19T00:54:39;31.73;30.12;42.67;;
71016;Laerm;60940;52.046;5.340;2023-09-19T00:54:49;31.43;29.78;38.36;;
71016;Laerm;60940;52.046;5.340;2023-09-19T00:55:00;32.00;29.93;46.68;;
71016;Laerm;60940;52.046;5.340;2023-09-19T00:55:12;33.05;30.04;51.49;;
71016;Laerm;60940;52.046;5.340;2023-09-19T00:55:24;32.23;30.11;42.23;;
71016;Laerm;60940;52.046;5.340;2023-09-19T00:55:35;31.78;29.87;41.63;;
71016;Laerm;60940;52.046;5.340;2023-09-19T00:55:47;32.14;30.06;43.67;;
71016;Laerm;60940;52.046;5.340;2023-09-19T00:55:58;31.85;29.66;40.01;;
71016;Laerm;60940;52.046;5.340;2023-09-19T00:56:08;33.54;29.68;51.17;;
71016;Laerm;60940;52.046;5.340;2023-09-19T00:56:19;32.06;30.03;44.00;;
71016;Laerm;60940;52.046;5.340;2023-09-19T00:56:30;31.67;30.04;39.44;;
71016;Laerm;60940;52.046;5.340;2023-09-19T00:56:41;31.64;29.95;39.68;;
71016;Laerm;60940;52.046;5.340;2023-09-19T00:56:52;31.87;29.81;41.57;;
71016;Laerm;60940;52.046;5.340;2023-09-19T00:57:04;31.84;29.78;41.45;;
71016;Laerm;60940;52.046;5.340;2023-09-19T00:57:14;31.92;30.36;41.01;;
71016;Laerm;60940;52.046;5.340;2023-09-19T00:57:25;31.99;30.13;42.81;;
71016;Laerm;60940;52.046;5.340;2023-09-19T00:57:36;32.88;30.13;50.24;;
71016;Laerm;60940;52.046;5.340;2023-09-19T00:57:48;32.90;29.92;44.57;;
71016;Laerm;60940;52.046;5.340;2023-09-19T00:58:00;32.36;30.19;44.57;;
71016;Laerm;60940;52.046;5.340;2023-09-19T00:58:10;32.73;29.96;50.09;;
71016;Laerm;60940;52.046;5.340;2023-09-19T00:58:21;32.61;30.09;44.43;;
71016;Laerm;60940;52.046;5.340;2023-09-19T00:58:31;31.80;30.33;40.17;;
71016;Laerm;60940;52.046;5.340;2023-09-19T00:58:44;32.48;29.99;48.17;;
71016;Laerm;60940;52.046;5.340;2023-09-19T00:58:54;33.23;30.04;51.23;;
71016;Laerm;60940;52.046;5.340;2023-09-19T00:59:04;32.77;30.19;48.54;;
71016;Laerm;60940;52.046;5.340;2023-09-19T00:59:15;32.12;30.37;40.55;;
71016;Laerm;60940;52.046;5.340;2023-09-19T00:59:27;32.43;29.82;43.29;;
71016;Laerm;60940;52.046;5.340;2023-09-19T00:59:37;31.75;30.27;39.02;;
71016;Laerm;60940;52.046;5.340;2023-09-19T00:59:48;31.72;30.07;38.81;;
71016;Laerm;60940;52.046;5.340;2023-09-19T00:59:59;32.51;30.33;42.36;;
71016;Laerm;60940;52.046;5.340;2023-09-19T01:00:10;32.35;29.84;44.89;;
71016;Laerm;60940;52.046;5.340;2023-09-19T01:00:25;31.93;29.66;44.78;;
71016;Laerm;60940;52.046;5.340;2023-09-19T01:00:35;32.05;30.04;40.18;;
71016;Laerm;60940;52.046;5.340;2023-09-19T01:00:47;32.44;30.06;42.63;;
71016;Laerm;60940;52.046;5.340;2023-09-19T01:00:57;31.78;30.28;36.22;;
71016;Laerm;60940;52.046;5.340;2023-09-19T01:01:08;32.80;30.53;45.41;;
71016;Laerm;60940;52.046;5.340;2023-09-19T01:01:18;35.25;30.71;47.87;;
71016;Laerm;60940;52.046;5.340;2023-09-19T01:01:29;35.35;30.48;55.16;;
71016;Laerm;60940;52.046;5.340;2023-09-19T01:01:39;31.95;30.15;38.76;;
71016;Laerm;60940;52.046;5.340;2023-09-19T01:01:49;31.75;30.11;37.14;;
71016;Laerm;60940;52.046;5.340;2023-09-19T01:02:03;35.61;30.34;58.35;;
71016;Laerm;60940;52.046;5.340;2023-09-19T01:02:14;32.45;30.66;40.03;;
71016;Laerm;60940;52.046;5.340;2023-09-19T01:02:24;33.37;30.48;47.96;;
71016;Laerm;60940;52.046;5.340;2023-09-19T01:02:37;33.84;30.57;47.78;;
71016;Laerm;60940;52.046;5.340;2023-09-19T01:02:47;31.75;30.53;35.27;;